Time;durP1;ratioP1;P1;durP2;ratioP2;P2;SDS_P1;SDS_P2;PMS_P1;PMS_P2;Temp;Humidity;BMP_temperature;BMP_pressure;BME280_temperature;BME280_humidity;BME280_pressure;Samples;Min_cycle;Max_cycle;Signal;HPM_P1;HPM_P2
2022/04/14 00:00:21;;;;;;;;;;;11.00;92.20;;;;;;5087496;28;20050;-67
2022/04/14 00:02:46;;;;;;;;;;;11.10;92.10;;;;;;5094858;28;19992;-67
2022/04/14 00:05:11;;;;;;;;;;;11.00;92.10;;;;;;5088884;28;21584;-67
2022/04/14 00:07:38;;;;;;;;;;;11.10;92.10;;;;;;5090794;28;19924;-72
2022/04/14 00:10:04;;;;;;;;;;;11.10;92.00;;;;;;5090029;28;19915;-67
2022/04/14 00:12:29;;;;;;;;;;;11.10;91.90;;;;;;5091254;28;20354;-67
2022/04/14 00:14:55;;;;;;;;;;;11.10;91.80;;;;;;5088400;28;19955;-68
2022/04/14 00:17:20;;;;;;;;;;;11.10;91.80;;;;;;5090150;28;19958;-69
2022/04/14 00:19:46;;;;;;;;;;;11.10;91.70;;;;;;5093200;28;19946;-67
2022/04/14 00:22:11;;;;;;;;;;;11.10;91.50;;;;;;5093092;28;20338;-67
2022/04/14 00:24:37;;;;;;;;;;;11.10;91.60;;;;;;5092151;28;20413;-67
2022/04/14 00:27:02;;;;;;;;;;;11.00;91.60;;;;;;5081710;28;19927;-67
2022/04/14 00:29:28;;;;;;;;;;;11.00;91.70;;;;;;5090270;28;19916;-67
2022/04/14 00:31:53;;;;;;;;;;;11.00;91.70;;;;;;5084534;28;19915;-67
2022/04/14 00:34:19;;;;;;;;;;;10.90;91.70;;;;;;5092782;28;20444;-67
2022/04/14 00:36:44;;;;;;;;;;;10.90;91.70;;;;;;5090404;28;19919;-67
2022/04/14 00:39:10;;;;;;;;;;;10.90;91.80;;;;;;5091348;28;19927;-68
2022/04/14 00:41:36;;;;;;;;;;;10.80;92.20;;;;;;5091793;28;19919;-67
2022/04/14 00:44:02;;;;;;;;;;;10.80;92.10;;;;;;5094053;28;19923;-67
2022/04/14 00:46:27;;;;;;;;;;;10.80;91.90;;;;;;5086279;28;19916;-67
2022/04/14 00:48:53;;;;;;;;;;;10.80;92.00;;;;;;5089322;28;20100;-67
2022/04/14 00:51:19;;;;;;;;;;;10.80;92.00;;;;;;5090552;28;19916;-67
2022/04/14 00:53:44;;;;;;;;;;;10.80;92.30;;;;;;5088505;28;20518;-67
2022/04/14 00:56:10;;;;;;;;;;;10.80;92.10;;;;;;5088313;28;20272;-67
2022/04/14 00:58:35;;;;;;;;;;;10.70;91.80;;;;;;5091786;28;19934;-67
2022/04/14 01:01:07;;;;;;;;;;;10.70;91.80;;;;;;5088780;28;20002;-67
2022/04/14 01:03:36;;;;;;;;;;;10.70;91.90;;;;;;5088290;28;19977;-67
2022/04/14 01:06:04;;;;;;;;;;;10.60;92.00;;;;;;5087429;28;19919;-67
2022/04/14 01:08:32;;;;;;;;;;;10.60;92.00;;;;;;5071137;28;19919;-68
2022/04/14 01:10:58;;;;;;;;;;;10.50;91.80;;;;;;5081698;28;19915;-67
2022/04/14 01:13:23;;;;;;;;;;;10.50;92.20;;;;;;5091299;28;20021;-67
2022/04/14 01:15:49;;;;;;;;;;;10.50;92.10;;;;;;5088910;28;19916;-67
2022/04/14 01:18:15;;;;;;;;;;;10.40;91.80;;;;;;5086863;28;19981;-67
2022/04/14 01:20:41;;;;;;;;;;;10.40;92.10;;;;;;5085402;28;19919;-67
2022/04/14 01:23:08;;;;;;;;;;;10.30;92.00;;;;;;5083567;28;19915;-67
2022/04/14 01:25:35;;;;;;;;;;;10.30;92.30;;;;;;5090014;28;20345;-67
2022/04/14 01:28:01;;;;;;;;;;;10.30;92.20;;;;;;5088437;28;19960;-67
2022/04/14 01:30:27;;;;;;;;;;;10.20;91.80;;;;;;5090218;28;19916;-67
2022/04/14 01:32:53;;;;;;;;;;;10.10;92.10;;;;;;5074870;28;19915;-67
2022/04/14 01:35:18;;;;;;;;;;;10.10;93.10;;;;;;5090333;28;20319;-70
2022/04/14 01:37:44;;;;;;;;;;;10.10;92.50;;;;;;5069760;28;19920;-67
2022/04/14 01:40:09;;;;;;;;;;;10.10;92.50;;;;;;5071820;28;20010;-67
2022/04/14 01:42:35;;;;;;;;;;;10.00;92.60;;;;;;5088013;28;19984;-67
2022/04/14 01:45:00;;;;;;;;;;;10.00;92.60;;;;;;5074831;28;20272;-67
2022/04/14 01:47:26;;;;;;;;;;;10.00;93.40;;;;;;5084094;28;19919;-67
2022/04/14 01:49:52;;;;;;;;;;;10.10;93.50;;;;;;5086204;28;19968;-67
2022/04/14 01:52:18;;;;;;;;;;;10.10;93.20;;;;;;5090848;28;20256;-67
2022/04/14 01:54:43;;;;;;;;;;;10.10;93.50;;;;;;5073611;28;19919;-67
2022/04/14 01:57:09;;;;;;;;;;;10.10;93.30;;;;;;5087106;28;20340;-67
2022/04/14 01:59:34;;;;;;;;;;;10.10;93.20;;;;;;5087779;28;20023;-67
2022/04/14 02:02:00;;;;;;;;;;;10.00;93.20;;;;;;5090698;28;19919;-67
2022/04/14 02:04:25;;;;;;;;;;;10.10;93.40;;;;;;5101621;28;19920;-67
2022/04/14 02:06:51;;;;;;;;;;;10.00;93.00;;;;;;5087167;28;19920;-67
2022/04/14 02:09:16;;;;;;;;;;;10.00;93.10;;;;;;5089254;28;19926;-67
2022/04/14 02:11:42;;;;;;;;;;;10.00;93.30;;;;;;5087875;28;20800;-67
2022/04/14 02:14:07;;;;;;;;;;;10.00;93.30;;;;;;5090163;28;19930;-67
2022/04/14 02:16:33;;;;;;;;;;;10.10;93.30;;;;;;5090223;28;19916;-67
2022/04/14 02:18:58;;;;;;;;;;;10.10;93.30;;;;;;5089391;28;19998;-67
2022/04/14 02:21:23;;;;;;;;;;;10.10;93.30;;;;;;5090008;28;19923;-67
2022/04/14 02:23:49;;;;;;;;;;;10.10;93.20;;;;;;5085376;28;20384;-67
2022/04/14 02:26:16;;;;;;;;;;;10.10;93.30;;;;;;5086327;28;19988;-67
2022/04/14 02:28:41;;;;;;;;;;;10.00;93.10;;;;;;5084843;28;19926;-67
2022/04/14 02:31:07;;;;;;;;;;;10.00;93.40;;;;;;5083262;28;20631;-67
2022/04/14 02:33:32;;;;;;;;;;;10.00;93.60;;;;;;5088623;28;19955;-67
2022/04/14 02:35:58;;;;;;;;;;;10.00;93.50;;;;;;5089104;28;19927;-67
2022/04/14 02:38:23;;;;;;;;;;;10.00;93.50;;;;;;5084468;28;19930;-67
2022/04/14 02:40:48;;;;;;;;;;;9.90;93.60;;;;;;5103249;28;19915;-68
2022/04/14 02:43:14;;;;;;;;;;;10.00;93.60;;;;;;5087571;28;19934;-67
2022/04/14 02:45:40;;;;;;;;;;;10.00;93.70;;;;;;5107870;28;19916;-67
2022/04/14 02:48:05;;;;;;;;;;;10.00;93.60;;;;;;5085602;28;20359;-67
2022/04/14 02:50:31;;;;;;;;;;;10.00;93.70;;;;;;5090967;28;19920;-67
2022/04/14 02:52:56;;;;;;;;;;;9.90;93.70;;;;;;5081149;28;19949;-67
2022/04/14 02:55:22;;;;;;;;;;;9.90;93.60;;;;;;5071451;28;19916;-68
2022/04/14 02:57:48;;;;;;;;;;;9.90;93.60;;;;;;5088801;28;20310;-67
2022/04/14 03:00:14;;;;;;;;;;;9.90;93.90;;;;;;5084511;28;19923;-69
2022/04/14 03:02:39;;;;;;;;;;;9.90;94.00;;;;;;5088815;28;19931;-67
2022/04/14 03:05:05;;;;;;;;;;;9.90;94.00;;;;;;5091227;28;19965;-67
2022/04/14 03:07:31;;;;;;;;;;;9.90;93.90;;;;;;5089960;28;19920;-67
2022/04/14 03:09:56;;;;;;;;;;;9.90;94.20;;;;;;5083940;28;20362;-67
2022/04/14 03:12:22;;;;;;;;;;;9.80;94.00;;;;;;5088288;28;19922;-67
2022/04/14 03:14:47;;;;;;;;;;;9.80;94.30;;;;;;5090107;28;19923;-71
2022/04/14 03:17:13;;;;;;;;;;;9.80;94.20;;;;;;5088567;28;19981;-67
2022/04/14 03:19:39;;;;;;;;;;;9.70;93.90;;;;;;5074539;28;19927;-67
2022/04/14 03:22:04;;;;;;;;;;;9.70;93.90;;;;;;5091259;28;20003;-67
2022/04/14 03:24:30;;;;;;;;;;;9.70;94.30;;;;;;5087335;28;19919;-67
2022/04/14 03:26:56;;;;;;;;;;;9.70;94.20;;;;;;5082635;28;19984;-67
2022/04/14 03:29:21;;;;;;;;;;;9.70;94.40;;;;;;5084463;28;19926;-67
2022/04/14 03:31:47;;;;;;;;;;;9.70;94.20;;;;;;5078816;28;19927;-68
2022/04/14 03:34:12;;;;;;;;;;;9.60;94.20;;;;;;5077774;28;19920;-67
2022/04/14 03:36:37;;;;;;;;;;;9.60;94.20;;;;;;5073453;28;19948;-68
2022/04/14 03:39:04;;;;;;;;;;;9.60;94.30;;;;;;5092062;28;19919;-67
2022/04/14 03:41:29;;;;;;;;;;;9.60;94.20;;;;;;5074961;28;19966;-67
2022/04/14 03:43:55;;;;;;;;;;;9.60;94.20;;;;;;5077347;28;19959;-68
2022/04/14 03:46:20;;;;;;;;;;;9.60;94.30;;;;;;5094994;28;19919;-67
2022/04/14 03:48:46;;;;;;;;;;;9.60;94.40;;;;;;5095056;28;19970;-67
2022/04/14 03:51:14;;;;;;;;;;;9.60;94.40;;;;;;5090284;28;19916;-67
2022/04/14 03:53:43;;;;;;;;;;;9.50;94.40;;;;;;5090430;28;20437;-67
2022/04/14 03:56:09;;;;;;;;;;;9.50;94.40;;;;;;5084400;28;19915;-67
2022/04/14 03:58:35;;;;;;;;;;;9.50;94.50;;;;;;5087638;28;19927;-67
2022/04/14 04:01:00;;;;;;;;;;;9.50;94.30;;;;;;5093192;28;19963;-67
2022/04/14 04:03:26;;;;;;;;;;;9.40;94.60;;;;;;5076955;28;19919;-67
2022/04/14 04:05:52;;;;;;;;;;;9.30;94.30;;;;;;5091075;28;22509;-67
2022/04/14 04:08:18;;;;;;;;;;;9.30;94.00;;;;;;5092586;28;20302;-67
2022/04/14 04:10:44;;;;;;;;;;;9.10;93.70;;;;;;5086614;28;19923;-67
2022/04/14 04:13:09;;;;;;;;;;;9.00;93.60;;;;;;5091779;28;19916;-67
2022/04/14 04:15:35;;;;;;;;;;;8.90;93.70;;;;;;5091824;28;19924;-68
2022/04/14 04:18:01;;;;;;;;;;;8.80;93.70;;;;;;5089946;28;20019;-67
2022/04/14 04:20:26;;;;;;;;;;;8.80;93.70;;;;;;5103495;28;20030;-67
2022/04/14 04:22:52;;;;;;;;;;;8.70;93.70;;;;;;5071797;28;20284;-67
2022/04/14 04:25:17;;;;;;;;;;;8.60;93.40;;;;;;5073113;28;19976;-67
2022/04/14 04:27:43;;;;;;;;;;;8.40;93.40;;;;;;5087640;28;19955;-67
2022/04/14 04:30:09;;;;;;;;;;;8.30;93.40;;;;;;5070069;28;19915;-67
2022/04/14 04:32:35;;;;;;;;;;;8.20;93.40;;;;;;5092940;28;19928;-67
2022/04/14 04:35:01;;;;;;;;;;;8.10;93.30;;;;;;5088593;28;19920;-67
2022/04/14 04:37:26;;;;;;;;;;;8.10;93.50;;;;;;5070859;28;19916;-68
2022/04/14 04:39:52;;;;;;;;;;;8.00;93.60;;;;;;5081479;28;19924;-68
2022/04/14 04:42:17;;;;;;;;;;;7.90;93.30;;;;;;5088090;28;19973;-67
2022/04/14 04:44:43;;;;;;;;;;;7.80;93.40;;;;;;5071593;28;20532;-67
2022/04/14 04:47:08;;;;;;;;;;;7.70;93.20;;;;;;5084009;28;20020;-67
2022/04/14 04:49:34;;;;;;;;;;;7.70;93.50;;;;;;5091269;28;19919;-67
2022/04/14 04:52:00;;;;;;;;;;;7.60;93.80;;;;;;5086303;28;19922;-67
2022/04/14 04:54:25;;;;;;;;;;;7.70;94.40;;;;;;5085759;28;19920;-68
2022/04/14 04:56:51;;;;;;;;;;;7.60;94.20;;;;;;5090092;28;19923;-67
2022/04/14 04:59:16;;;;;;;;;;;7.60;94.00;;;;;;5068616;28;19981;-67
2022/04/14 05:01:42;;;;;;;;;;;7.50;93.80;;;;;;5089004;28;19962;-68
2022/04/14 05:04:09;;;;;;;;;;;7.50;94.20;;;;;;5106800;28;19915;-67
2022/04/14 05:06:34;;;;;;;;;;;7.50;94.00;;;;;;5089259;28;19954;-67
2022/04/14 05:09:00;;;;;;;;;;;7.50;94.50;;;;;;5090615;28;19915;-67
2022/04/14 05:11:25;;;;;;;;;;;7.50;94.30;;;;;;5086409;28;19963;-67
2022/04/14 05:13:51;;;;;;;;;;;7.50;94.10;;;;;;5075098;28;19951;-68
2022/04/14 05:16:16;;;;;;;;;;;7.60;94.70;;;;;;5070524;28;19923;-68
2022/04/14 05:18:42;;;;;;;;;;;7.50;94.50;;;;;;5088867;28;19919;-67
2022/04/14 05:21:07;;;;;;;;;;;7.50;94.40;;;;;;5089278;28;19981;-67
2022/04/14 05:23:33;;;;;;;;;;;7.60;94.50;;;;;;5062798;28;19919;-67
2022/04/14 05:25:58;;;;;;;;;;;7.60;94.60;;;;;;5084943;28;19938;-67
2022/04/14 05:28:24;;;;;;;;;;;7.60;94.50;;;;;;5079257;28;19915;-68
2022/04/14 05:30:50;;;;;;;;;;;7.60;94.50;;;;;;5092134;28;20006;-67
2022/04/14 05:33:15;;;;;;;;;;;7.70;94.90;;;;;;5089165;28;20002;-67
2022/04/14 05:35:43;;;;;;;;;;;7.80;95.30;;;;;;5084784;28;20073;-68
2022/04/14 05:38:08;;;;;;;;;;;7.90;96.10;;;;;;5104894;28;20018;-68
2022/04/14 05:40:35;;;;;;;;;;;8.00;96.20;;;;;;5083971;28;20057;-67
2022/04/14 05:43:00;;;;;;;;;;;8.20;96.50;;;;;;5088652;28;20263;-67
2022/04/14 05:45:26;;;;;;;;;;;8.30;97.70;;;;;;5076078;28;19919;-67
2022/04/14 05:47:51;;;;;;;;;;;8.40;97.40;;;;;;5089725;28;19992;-67
2022/04/14 05:50:17;;;;;;;;;;;8.60;97.50;;;;;;5092233;28;19931;-67
2022/04/14 05:52:42;;;;;;;;;;;8.70;97.40;;;;;;5086813;28;19919;-67
2022/04/14 05:55:08;;;;;;;;;;;8.90;97.30;;;;;;5081925;28;20419;-67
2022/04/14 05:57:34;;;;;;;;;;;9.00;97.20;;;;;;5104910;28;19919;-67
2022/04/14 06:00:00;;;;;;;;;;;9.10;97.00;;;;;;5098555;28;19920;-67
2022/04/14 06:02:26;;;;;;;;;;;9.10;96.80;;;;;;5087881;28;20231;-67
2022/04/14 06:04:52;;;;;;;;;;;9.20;96.50;;;;;;5090440;28;19959;-67
2022/04/14 06:07:17;;;;;;;;;;;9.30;96.60;;;;;;5082341;28;20408;-68
2022/04/14 06:09:43;;;;;;;;;;;9.40;96.40;;;;;;5106310;27;19939;-67
2022/04/14 06:12:08;;;;;;;;;;;9.50;96.20;;;;;;5091405;28;19963;-67
2022/04/14 06:14:34;;;;;;;;;;;9.70;96.20;;;;;;5092140;28;19923;-67
2022/04/14 06:16:59;;;;;;;;;;;9.80;96.10;;;;;;5092898;28;20392;-67
2022/04/14 06:19:25;;;;;;;;;;;10.00;95.90;;;;;;5075472;28;20221;-68
2022/04/14 06:21:51;;;;;;;;;;;10.20;95.80;;;;;;5088293;28;19916;-67
2022/04/14 06:24:16;;;;;;;;;;;10.40;95.20;;;;;;5101205;28;19916;-68
2022/04/14 06:26:42;;;;;;;;;;;10.60;94.90;;;;;;5090484;28;19953;-68
2022/04/14 06:29:07;;;;;;;;;;;10.80;94.40;;;;;;5091619;28;20046;-67
2022/04/14 06:31:33;;;;;;;;;;;11.00;94.10;;;;;;5084985;28;20568;-67
2022/04/14 06:33:58;;;;;;;;;;;11.20;93.70;;;;;;5088862;28;19915;-68
2022/04/14 06:36:24;;;;;;;;;;;11.50;93.20;;;;;;5090564;27;20439;-67
2022/04/14 06:38:49;;;;;;;;;;;11.70;92.70;;;;;;5080243;28;19968;-67
2022/04/14 06:41:15;;;;;;;;;;;11.80;92.10;;;;;;5082600;28;20003;-68
2022/04/14 06:43:40;;;;;;;;;;;12.00;91.90;;;;;;5111328;28;19916;-67
2022/04/14 06:46:06;;;;;;;;;;;12.20;91.40;;;;;;5092087;28;19927;-67
2022/04/14 06:48:31;;;;;;;;;;;12.40;90.60;;;;;;5110782;28;19915;-68
2022/04/14 06:51:00;;;;;;;;;;;12.40;90.40;;;;;;5092382;28;20014;-67
2022/04/14 06:53:26;;;;;;;;;;;12.50;89.50;;;;;;5100770;28;19923;-68
2022/04/14 06:55:53;;;;;;;;;;;12.70;89.90;;;;;;5089672;28;19924;-68
2022/04/14 06:58:19;;;;;;;;;;;12.90;89.10;;;;;;5091367;28;19920;-68
2022/04/14 07:00:44;;;;;;;;;;;12.90;88.80;;;;;;5111243;28;19916;-68
2022/04/14 07:03:10;;;;;;;;;;;13.20;88.40;;;;;;5091741;28;20030;-68
2022/04/14 07:05:36;;;;;;;;;;;13.50;87.10;;;;;;5109250;28;19969;-68
2022/04/14 07:08:01;;;;;;;;;;;13.60;85.70;;;;;;5091009;28;19924;-68
2022/04/14 07:10:27;;;;;;;;;;;13.80;85.40;;;;;;5091114;28;20592;-68
2022/04/14 07:12:53;;;;;;;;;;;14.00;84.60;;;;;;5090473;28;20501;-68
2022/04/14 07:15:18;;;;;;;;;;;14.00;85.00;;;;;;5088154;28;19945;-67
2022/04/14 07:17:44;;;;;;;;;;;14.10;84.20;;;;;;5098992;28;20006;-68
2022/04/14 07:20:10;;;;;;;;;;;14.20;83.20;;;;;;5092541;28;19920;-68
2022/04/14 07:22:42;;;;;;;;;;;14.50;81.70;;;;;;5084129;28;20026;-68
2022/04/14 07:25:08;;;;;;;;;;;14.60;81.50;;;;;;5090246;28;19924;-68
2022/04/14 07:27:34;;;;;;;;;;;14.70;81.80;;;;;;5101448;28;19923;-68
2022/04/14 07:29:59;;;;;;;;;;;14.90;81.10;;;;;;5092416;28;19920;-69
2022/04/14 07:32:32;;;;;;;;;;;14.90;79.90;;;;;;5091733;28;19931;-68
2022/04/14 07:34:58;;;;;;;;;;;15.00;78.20;;;;;;5089931;28;20399;-68
2022/04/14 07:37:23;;;;;;;;;;;15.20;78.50;;;;;;5087322;28;20034;-68
2022/04/14 07:39:49;;;;;;;;;;;15.50;78.00;;;;;;5085466;28;20002;-69
2022/04/14 07:42:14;;;;;;;;;;;15.60;77.30;;;;;;5093108;28;20232;-69
2022/04/14 07:44:40;;;;;;;;;;;15.60;76.20;;;;;;5104891;28;19962;-69
2022/04/14 07:47:05;;;;;;;;;;;15.80;75.80;;;;;;5089616;28;19980;-70
2022/04/14 07:49:32;;;;;;;;;;;15.80;74.60;;;;;;5091682;28;19943;-69
2022/04/14 07:51:57;;;;;;;;;;;16.20;75.50;;;;;;5108717;28;19916;-69
2022/04/14 07:54:23;;;;;;;;;;;16.50;74.60;;;;;;5088588;28;20381;-69
2022/04/14 07:56:48;;;;;;;;;;;16.80;70.90;;;;;;5090352;28;19923;-69
2022/04/14 07:59:13;;;;;;;;;;;17.20;72.90;;;;;;5078576;28;20324;-69
2022/04/14 08:01:39;;;;;;;;;;;17.40;70.80;;;;;;5075615;28;19920;-70
2022/04/14 08:04:04;;;;;;;;;;;17.70;71.70;;;;;;5088365;28;20405;-69
2022/04/14 08:06:31;;;;;;;;;;;17.80;70.60;;;;;;5093353;28;20353;-69
2022/04/14 08:08:56;;;;;;;;;;;17.70;67.90;;;;;;5073524;28;19916;-69
2022/04/14 08:11:22;;;;;;;;;;;18.00;67.10;;;;;;5092720;28;19976;-69
2022/04/14 08:13:47;;;;;;;;;;;18.00;66.80;;;;;;5113711;28;20299;-69
2022/04/14 08:16:13;;;;;;;;;;;18.10;67.90;;;;;;5094424;28;19922;-69
2022/04/14 08:18:39;;;;;;;;;;;18.10;67.60;;;;;;5093653;28;19920;-69
2022/04/14 08:21:05;;;;;;;;;;;18.20;66.00;;;;;;5093079;28;20016;-69
2022/04/14 08:23:31;;;;;;;;;;;18.10;66.10;;;;;;5088216;28;19984;-69
2022/04/14 08:25:57;;;;;;;;;;;18.10;67.30;;;;;;5106708;28;19927;-69
2022/04/14 08:28:22;;;;;;;;;;;18.00;66.10;;;;;;5089401;28;19916;-68
2022/04/14 08:30:48;;;;;;;;;;;17.80;64.30;;;;;;5093103;28;19923;-69
2022/04/14 08:33:16;;;;;;;;;;;17.90;67.50;;;;;;5094000;28;20015;-68
2022/04/14 08:35:41;;;;;;;;;;;17.80;66.80;;;;;;5092354;28;19926;-69
2022/04/14 08:38:07;;;;;;;;;;;17.90;68.10;;;;;;5090424;28;20278;-68
2022/04/14 08:40:37;;;;;;;;;;;18.20;68.00;;;;;;5073239;28;19984;-67
2022/04/14 08:43:03;;;;;;;;;;;18.40;66.90;;;;;;5072490;28;19941;-68
2022/04/14 08:45:34;;;;;;;;;;;19.20;68.10;;;;;;5092468;28;20006;-69
2022/04/14 08:48:00;;;;;;;;;;;19.60;62.80;;;;;;5077464;28;20320;-69
2022/04/14 08:50:26;;;;;;;;;;;20.00;61.60;;;;;;5093528;28;19969;-69
2022/04/14 08:52:52;;;;;;;;;;;20.30;57.30;;;;;;5109086;28;19958;-69
2022/04/14 08:55:17;;;;;;;;;;;20.80;59.40;;;;;;5092152;28;19961;-70
2022/04/14 08:57:43;;;;;;;;;;;20.60;55.40;;;;;;5092962;28;19955;-69
2022/04/14 09:00:10;;;;;;;;;;;21.20;57.30;;;;;;5075596;28;19923;-70
2022/04/14 09:02:36;;;;;;;;;;;21.80;54.60;;;;;;5093072;28;19923;-70
2022/04/14 09:05:02;;;;;;;;;;;22.10;52.30;;;;;;5093776;28;19968;-69
2022/04/14 09:07:28;;;;;;;;;;;22.00;51.10;;;;;;5090872;28;19919;-70
2022/04/14 09:09:53;;;;;;;;;;;22.40;55.00;;;;;;5089070;28;20351;-69
2022/04/14 09:12:19;;;;;;;;;;;22.50;54.50;;;;;;5088694;28;19916;-70
2022/04/14 09:14:45;;;;;;;;;;;23.00;50.90;;;;;;5093312;28;20259;-71
2022/04/14 09:17:10;;;;;;;;;;;22.90;52.00;;;;;;5072316;28;19923;-70
2022/04/14 09:19:36;;;;;;;;;;;22.20;49.10;;;;;;5080778;28;19920;-71
2022/04/14 09:22:13;;;;;;;;;;;22.60;51.70;;;;;;5092441;28;19923;-70
2022/04/14 09:24:39;;;;;;;;;;;22.80;52.70;;;;;;5090038;28;19919;-70
2022/04/14 09:27:05;;;;;;;;;;;23.00;50.40;;;;;;5092401;28;20315;-69
2022/04/14 09:29:31;;;;;;;;;;;22.50;50.40;;;;;;5091299;28;20030;-70
2022/04/14 09:31:56;;;;;;;;;;;22.30;50.30;;;;;;5076183;28;19922;-71
2022/04/14 09:34:41;;;;;;;;;;;22.00;54.30;;;;;;5109860;28;20295;-69
2022/04/14 09:37:08;;;;;;;;;;;21.70;53.90;;;;;;5090595;28;19923;-70
2022/04/14 09:39:48;;;;;;;;;;;21.40;54.80;;;;;;5068642;28;19934;-69
2022/04/14 09:42:14;;;;;;;;;;;21.10;54.90;;;;;;5072422;28;19954;-69
2022/04/14 09:44:39;;;;;;;;;;;21.00;55.70;;;;;;5090683;28;19953;-69
2022/04/14 09:47:05;;;;;;;;;;;20.90;53.40;;;;;;5091171;28;19927;-69
2022/04/14 09:49:30;;;;;;;;;;;21.00;54.10;;;;;;5089871;28;19988;-70
2022/04/14 09:51:56;;;;;;;;;;;20.90;54.80;;;;;;5074966;28;19915;-69
2022/04/14 09:54:28;;;;;;;;;;;20.80;52.40;;;;;;5090068;28;19916;-71
2022/04/14 09:56:55;;;;;;;;;;;20.90;54.50;;;;;;5089969;28;19922;-69
2022/04/14 09:59:24;;;;;;;;;;;20.80;54.00;;;;;;5093292;28;19919;-69
2022/04/14 10:02:06;;;;;;;;;;;21.30;52.80;;;;;;5082139;28;19923;-68
2022/04/14 10:04:33;;;;;;;;;;;21.60;51.80;;;;;;5086378;28;19916;-69
2022/04/14 10:07:09;;;;;;;;;;;22.20;52.40;;;;;;5092722;28;19987;-70
2022/04/14 10:09:35;;;;;;;;;;;22.60;49.60;;;;;;5082044;28;19926;-70
2022/04/14 10:12:02;;;;;;;;;;;22.60;48.90;;;;;;5074603;28;19932;-70
2022/04/14 10:14:27;;;;;;;;;;;22.70;49.60;;;;;;5093321;28;19974;-69
2022/04/14 10:16:53;;;;;;;;;;;23.00;48.60;;;;;;5093400;28;19962;-69
2022/04/14 10:19:19;;;;;;;;;;;22.90;47.00;;;;;;5089413;28;19927;-69
2022/04/14 10:21:45;;;;;;;;;;;23.70;47.40;;;;;;5074853;28;20395;-69
2022/04/14 10:24:14;;;;;;;;;;;23.20;45.30;;;;;;5073734;28;20007;-70
2022/04/14 10:26:40;;;;;;;;;;;23.40;47.90;;;;;;5081210;28;19915;-70
2022/04/14 10:29:06;;;;;;;;;;;23.90;46.70;;;;;;5072013;28;19920;-70
2022/04/14 10:31:35;;;;;;;;;;;24.00;45.70;;;;;;5086553;28;20275;-70
2022/04/14 10:34:06;;;;;;;;;;;23.80;45.20;;;;;;5085642;28;20009;-70
2022/04/14 10:36:36;;;;;;;;;;;23.30;44.90;;;;;;5092175;28;19916;-69
2022/04/14 10:39:02;;;;;;;;;;;22.90;45.50;;;;;;5088946;28;19919;-70
2022/04/14 10:41:29;;;;;;;;;;;22.20;45.90;;;;;;5091026;28;19923;-70
2022/04/14 10:43:59;;;;;;;;;;;21.60;46.00;;;;;;5092144;28;20108;-70
2022/04/14 10:46:31;;;;;;;;;;;21.30;48.30;;;;;;5091263;28;19919;-70
2022/04/14 10:49:10;;;;;;;;;;;21.30;50.40;;;;;;5078679;28;19919;-70
2022/04/14 10:51:36;;;;;;;;;;;21.00;50.80;;;;;;5087105;28;20247;-70
2022/04/14 10:54:06;;;;;;;;;;;21.00;52.20;;;;;;5087543;28;22057;-68
2022/04/14 10:56:34;;;;;;;;;;;21.00;52.50;;;;;;5088507;28;19922;-71
2022/04/14 10:59:04;;;;;;;;;;;20.70;52.40;;;;;;5088395;28;19920;-70
2022/04/14 11:01:53;;;;;;;;;;;20.60;51.10;;;;;;5091479;28;19915;-70
2022/04/14 11:04:31;;;;;;;;;;;20.70;52.40;;;;;;5082867;28;19923;-70
2022/04/14 11:06:59;;;;;;;;;;;20.60;52.60;;;;;;5092262;28;19927;-70
2022/04/14 11:09:43;;;;;;;;;;;20.10;51.60;;;;;;5090176;28;19916;-69
2022/04/14 11:12:12;;;;;;;;;;;20.10;53.20;;;;;;5092117;28;19915;-69
2022/04/14 11:14:43;;;;;;;;;;;20.20;51.70;;;;;;5090579;28;19943;-70
2022/04/14 11:17:28;;;;;;;;;;;20.20;51.80;;;;;;5084431;28;19968;-69
2022/04/14 11:19:53;;;;;;;;;;;20.40;49.50;;;;;;5084711;28;19963;-69
2022/04/14 11:22:19;;;;;;;;;;;20.60;50.90;;;;;;5089576;28;19982;-69
2022/04/14 11:24:44;;;;;;;;;;;20.80;51.40;;;;;;5089300;28;19916;-68
2022/04/14 11:27:15;;;;;;;;;;;20.80;51.80;;;;;;5091411;28;19923;-68
2022/04/14 11:29:43;;;;;;;;;;;20.70;51.60;;;;;;5075665;28;19916;-69
2022/04/14 11:32:08;;;;;;;;;;;20.60;50.30;;;;;;5089535;28;19920;-69
2022/04/14 11:34:34;;;;;;;;;;;20.50;51.90;;;;;;5090704;28;19915;-71
2022/04/14 11:37:03;;;;;;;;;;;20.30;51.60;;;;;;5091429;28;19962;-70
2022/04/14 11:39:29;;;;;;;;;;;20.40;52.60;;;;;;5072986;28;20350;-70
2022/04/14 11:42:07;;;;;;;;;;;20.60;51.80;;;;;;5095054;28;19930;-69
2022/04/14 11:44:32;;;;;;;;;;;20.60;51.80;;;;;;5113708;28;19915;-70
2022/04/14 11:46:59;;;;;;;;;;;20.90;50.30;;;;;;5094793;28;19943;-69
2022/04/14 11:49:25;;;;;;;;;;;21.00;50.70;;;;;;5095172;28;19915;-69
2022/04/14 11:51:51;;;;;;;;;;;21.40;51.70;;;;;;5094018;28;20410;-68
2022/04/14 11:54:21;;;;;;;;;;;21.30;50.80;;;;;;5110538;28;19935;-69
2022/04/14 11:56:52;;;;;;;;;;;21.50;48.80;;;;;;5094256;28;19915;-69
2022/04/14 11:59:18;;;;;;;;;;;21.60;48.70;;;;;;5095252;28;19943;-70
2022/04/14 12:01:49;;;;;;;;;;;21.70;49.90;;;;;;5077018;28;19915;-69
2022/04/14 12:04:14;;;;;;;;;;;21.70;47.60;;;;;;5092949;28;19949;-69
2022/04/14 12:06:49;;;;;;;;;;;22.10;48.90;;;;;;5086887;28;19956;-69
2022/04/14 12:09:19;;;;;;;;;;;22.20;49.00;;;;;;5068924;28;19917;-68
2022/04/14 12:11:44;;;;;;;;;;;22.20;48.60;;;;;;5053387;28;19939;-69
2022/04/14 12:14:10;;;;;;;;;;;22.20;48.00;;;;;;5071121;28;19916;-69
2022/04/14 12:16:35;;;;;;;;;;;21.90;48.50;;;;;;5072266;28;20022;-69
2022/04/14 12:19:02;;;;;;;;;;;21.70;48.60;;;;;;5070877;28;19997;-68
2022/04/14 12:21:28;;;;;;;;;;;21.70;47.00;;;;;;5069072;28;19927;-69
2022/04/14 12:23:54;;;;;;;;;;;21.80;48.00;;;;;;5070141;28;19916;-69
2022/04/14 12:26:20;;;;;;;;;;;21.90;47.90;;;;;;5069017;28;20364;-69
2022/04/14 12:28:46;;;;;;;;;;;21.80;47.40;;;;;;5066627;28;19920;-70
2022/04/14 12:31:12;;;;;;;;;;;21.60;48.60;;;;;;5070745;28;19916;-69
2022/04/14 12:33:38;;;;;;;;;;;21.80;47.60;;;;;;5070178;28;19916;-69
2022/04/14 12:36:05;;;;;;;;;;;22.20;49.00;;;;;;5070323;28;19974;-69
2022/04/14 12:38:40;;;;;;;;;;;22.50;47.80;;;;;;5068703;28;20306;-69
2022/04/14 12:41:07;;;;;;;;;;;22.50;46.80;;;;;;5070035;28;20639;-69
2022/04/14 12:43:40;;;;;;;;;;;22.50;46.90;;;;;;5053755;28;19917;-69
2022/04/14 12:46:24;;;;;;;;;;;22.40;47.40;;;;;;5071587;28;19966;-69
2022/04/14 12:49:00;;;;;;;;;;;22.10;46.00;;;;;;5069639;28;19927;-70
2022/04/14 12:51:49;;;;;;;;;;;21.90;46.60;;;;;;5069421;28;19920;-70
2022/04/14 12:54:15;;;;;;;;;;;22.10;45.90;;;;;;5063944;28;20327;-70
2022/04/14 12:56:54;;;;;;;;;;;22.50;45.10;;;;;;5059024;28;20287;-70
2022/04/14 12:59:20;;;;;;;;;;;23.00;44.10;;;;;;5069039;28;19931;-69
2022/04/14 13:01:45;;;;;;;;;;;22.80;44.50;;;;;;5065504;28;20490;-69
2022/04/14 13:04:11;;;;;;;;;;;22.90;44.50;;;;;;5055787;28;19967;-69
2022/04/14 13:06:36;;;;;;;;;;;22.80;45.00;;;;;;5069667;28;20015;-69
2022/04/14 13:09:17;;;;;;;;;;;22.50;45.70;;;;;;5100685;28;19988;-69
2022/04/14 13:11:46;;;;;;;;;;;22.20;45.90;;;;;;5088530;28;19924;-69
2022/04/14 13:14:28;;;;;;;;;;;22.00;47.30;;;;;;5092166;28;19915;-69
2022/04/14 13:16:54;;;;;;;;;;;21.90;48.20;;;;;;5086980;28;20002;-69
2022/04/14 13:19:20;;;;;;;;;;;21.60;48.30;;;;;;5088221;28;19919;-68
2022/04/14 13:21:45;;;;;;;;;;;21.30;49.00;;;;;;5082304;28;20003;-69
2022/04/14 13:24:11;;;;;;;;;;;21.10;49.30;;;;;;5054767;28;19920;-69
2022/04/14 13:26:37;;;;;;;;;;;20.90;50.30;;;;;;5084892;28;19923;-70
2022/04/14 13:29:02;;;;;;;;;;;20.70;49.80;;;;;;5076908;28;19958;-70
2022/04/14 13:31:28;;;;;;;;;;;20.70;50.40;;;;;;5087498;28;20363;-69
2022/04/14 13:33:54;;;;;;;;;;;20.70;50.40;;;;;;5092230;28;19927;-69
2022/04/14 13:36:19;;;;;;;;;;;20.50;50.60;;;;;;5093309;28;19916;-69
2022/04/14 13:38:45;;;;;;;;;;;20.40;49.50;;;;;;5089374;28;20183;-69
2022/04/14 13:41:11;;;;;;;;;;;20.30;49.70;;;;;;5069277;28;19929;-69
2022/04/14 13:43:37;;;;;;;;;;;20.20;49.80;;;;;;5091391;28;19916;-69
2022/04/14 13:46:03;;;;;;;;;;;20.20;49.80;;;;;;5084111;28;19922;-69
2022/04/14 13:48:28;;;;;;;;;;;20.00;50.20;;;;;;5088110;28;19924;-69
2022/04/14 13:50:54;;;;;;;;;;;20.00;50.60;;;;;;5089682;28;19920;-69
2022/04/14 13:53:19;;;;;;;;;;;19.90;51.40;;;;;;5082327;28;19916;-69
2022/04/14 13:55:45;;;;;;;;;;;19.80;52.00;;;;;;5088418;28;20040;-70
2022/04/14 13:58:11;;;;;;;;;;;19.80;52.10;;;;;;5091883;28;19916;-69
2022/04/14 14:00:36;;;;;;;;;;;19.70;52.30;;;;;;5076134;28;19916;-69
2022/04/14 14:03:02;;;;;;;;;;;19.60;52.40;;;;;;5075017;28;19922;-69
2022/04/14 14:05:28;;;;;;;;;;;19.50;52.80;;;;;;5091187;28;20473;-68
2022/04/14 14:07:53;;;;;;;;;;;19.60;52.50;;;;;;5091652;28;20310;-68
2022/04/14 14:10:19;;;;;;;;;;;19.50;53.00;;;;;;5090993;28;19915;-69
2022/04/14 14:12:44;;;;;;;;;;;19.50;52.60;;;;;;5075126;28;19920;-68
2022/04/14 14:15:09;;;;;;;;;;;19.50;53.20;;;;;;5093293;28;20006;-69
2022/04/14 14:17:38;;;;;;;;;;;19.50;53.10;;;;;;5092363;28;19923;-69